EZY4817 EKCH-ENGM
Flight info
| Callsign | EZY4817 |
|---|---|
| Flight time | 0h 57m |
| Altitude | 38000 |
| Route | VEDAR DCT SABAK DCT LUNIP |
| Aircraft | A20N/M-SDE2E3FGHIRWXY/LB1 |
Departure
| Time | 2026-05-07 20:13 |
|---|---|
| Airport | Copenhagen Kastrup Airport (EKCH) |
Arrival
| Time | 2026-05-07 21:11 |
|---|---|
| Airport | Oslo-Gardermoen International Airport (ENGM) |
| Time | Latitude | Longitude | Altitude | Speed | Heading |
|---|---|---|---|---|---|
| 2026-05-07 19:40 | 55.62510 | 12.65460 | 21 ft | 0 kts | 0° |
| 2026-05-07 20:00 | 55.62501 | 12.65460 | 21 ft | 2 kts | 359° |
| 2026-05-07 20:01 | 55.62485 | 12.65461 | 21 ft | 2 kts | 355° |
| 2026-05-07 20:01 | 55.62468 | 12.65465 | 21 ft | 2 kts | 347° |
| 2026-05-07 20:01 | 55.62453 | 12.65475 | 23 ft | 2 kts | 328° |
| 2026-05-07 20:01 | 55.62443 | 12.65497 | 22 ft | 2 kts | 281° |
| 2026-05-07 20:02 | 55.62442 | 12.65510 | 21 ft | 0 kts | 270° |
| 2026-05-07 20:05 | 55.62442 | 12.65509 | 21 ft | 0 kts | 270° |
| 2026-05-07 20:05 | 55.62440 | 12.65427 | 22 ft | 12 kts | 267° |
| 2026-05-07 20:05 | 55.62402 | 12.65329 | 22 ft | 8 kts | 192° |
| 2026-05-07 20:06 | 55.62352 | 12.65328 | 26 ft | 6 kts | 178° |
| 2026-05-07 20:06 | 55.62313 | 12.65316 | 24 ft | 7 kts | 208° |
| 2026-05-07 20:06 | 55.62280 | 12.65239 | 25 ft | 8 kts | 229° |
| 2026-05-07 20:06 | 55.62203 | 12.65169 | 27 ft | 15 kts | 205° |
| 2026-05-07 20:07 | 55.62096 | 12.65051 | 28 ft | 24 kts | 213° |
| 2026-05-07 20:07 | 55.61932 | 12.64864 | 21 ft | 30 kts | 211° |
| 2026-05-07 20:07 | 55.61758 | 12.64661 | 25 ft | 29 kts | 214° |
| 2026-05-07 20:07 | 55.61586 | 12.64466 | 22 ft | 30 kts | 213° |
| 2026-05-07 20:08 | 55.61412 | 12.64271 | 21 ft | 30 kts | 212° |
| 2026-05-07 20:08 | 55.61238 | 12.64069 | 19 ft | 31 kts | 213° |
| 2026-05-07 20:08 | 55.61062 | 12.63863 | 21 ft | 30 kts | 214° |
| 2026-05-07 20:08 | 55.60895 | 12.63673 | 24 ft | 29 kts | 212° |
| 2026-05-07 20:09 | 55.60725 | 12.63478 | 22 ft | 30 kts | 212° |
| 2026-05-07 20:09 | 55.60565 | 12.63253 | 23 ft | 29 kts | 220° |
| 2026-05-07 20:09 | 55.60450 | 12.63116 | 28 ft | 15 kts | 184° |
| 2026-05-07 20:10 | 55.60394 | 12.63167 | 29 ft | 0 kts | 129° |
| 2026-05-07 20:10 | 55.60390 | 12.63177 | 29 ft | 6 kts | 129° |
| 2026-05-07 20:11 | 55.60346 | 12.63331 | 32 ft | 20 kts | 79° |
| 2026-05-07 20:11 | 55.60388 | 12.63431 | 30 ft | 0 kts | 41° |
| 2026-05-07 20:13 | 55.60552 | 12.63685 | 27 ft | 71 kts | 40° |
| 2026-05-07 20:13 | 55.61135 | 12.64580 | 25 ft | 151 kts | 40° |
| 2026-05-07 20:13 | 55.62027 | 12.65946 | 384 ft | 183 kts | 39° |
| 2026-05-07 20:13 | 55.63069 | 12.67458 | 940 ft | 204 kts | 38° |
| 2026-05-07 20:14 | 55.64229 | 12.69064 | 1434 ft | 221 kts | 36° |
| 2026-05-07 20:14 | 55.65526 | 12.70770 | 1965 ft | 245 kts | 34° |
| 2026-05-07 20:14 | 55.66991 | 12.72567 | 2606 ft | 266 kts | 32° |
| 2026-05-07 20:14 | 55.68610 | 12.74384 | 3362 ft | 283 kts | 30° |
| 2026-05-07 20:15 | 55.70371 | 12.76121 | 4213 ft | 295 kts | 24° |
| 2026-05-07 20:15 | 55.72240 | 12.77573 | 5479 ft | 288 kts | 22° |
| 2026-05-07 20:15 | 55.74060 | 12.78884 | 6873 ft | 276 kts | 18° |
| 2026-05-07 20:15 | 55.75914 | 12.79540 | 8081 ft | 270 kts | 6° |
| 2026-05-07 20:16 | 55.77159 | 12.79693 | 8748 ft | 271 kts | 4° |
| 2026-05-07 20:16 | 55.79050 | 12.79791 | 9701 ft | 275 kts | 2° |
| 2026-05-07 20:16 | 55.80987 | 12.79407 | 10356 ft | 291 kts | 347° |
| 2026-05-07 20:16 | 55.83619 | 12.77578 | 10860 ft | 321 kts | 335° |
| 2026-05-07 20:17 | 55.85666 | 12.75773 | 11501 ft | 333 kts | 334° |
| 2026-05-07 20:17 | 55.87746 | 12.73863 | 12358 ft | 339 kts | 333° |
| 2026-05-07 20:17 | 55.89166 | 12.72555 | 12983 ft | 341 kts | 333° |
| 2026-05-07 20:17 | 55.91286 | 12.70598 | 13931 ft | 344 kts | 333° |
| 2026-05-07 20:18 | 55.93419 | 12.68628 | 14777 ft | 347 kts | 332° |
| 2026-05-07 20:18 | 55.95575 | 12.66633 | 15579 ft | 351 kts | 332° |
| 2026-05-07 20:18 | 55.97758 | 12.64610 | 16355 ft | 355 kts | 332° |
| 2026-05-07 20:18 | 55.99964 | 12.62563 | 17095 ft | 360 kts | 332° |
| 2026-05-07 20:19 | 56.02204 | 12.60481 | 17846 ft | 364 kts | 332° |
| 2026-05-07 20:19 | 56.04465 | 12.58377 | 18571 ft | 368 kts | 332° |
| 2026-05-07 20:19 | 56.06748 | 12.56251 | 19225 ft | 372 kts | 332° |
| 2026-05-07 20:19 | 56.09029 | 12.54123 | 19857 ft | 376 kts | 332° |
| 2026-05-07 20:20 | 56.11360 | 12.51945 | 20507 ft | 380 kts | 332° |
| 2026-05-07 20:20 | 56.13713 | 12.49744 | 21149 ft | 383 kts | 332° |
| 2026-05-07 20:20 | 56.16090 | 12.47517 | 21773 ft | 387 kts | 332° |
| 2026-05-07 20:20 | 56.18489 | 12.45267 | 22387 ft | 391 kts | 332° |
| 2026-05-07 20:21 | 56.20908 | 12.42995 | 22981 ft | 394 kts | 332° |
| 2026-05-07 20:21 | 56.23350 | 12.40698 | 23588 ft | 397 kts | 332° |
| 2026-05-07 20:21 | 56.25806 | 12.38383 | 24109 ft | 400 kts | 332° |
| 2026-05-07 20:21 | 56.28277 | 12.36052 | 24598 ft | 403 kts | 332° |
| 2026-05-07 20:22 | 56.30773 | 12.33693 | 25029 ft | 407 kts | 332° |
| 2026-05-07 20:22 | 56.33284 | 12.31317 | 25490 ft | 409 kts | 332° |
| 2026-05-07 20:22 | 56.35818 | 12.28916 | 25942 ft | 412 kts | 332° |
| 2026-05-07 20:22 | 56.38365 | 12.26498 | 26399 ft | 414 kts | 332° |
| 2026-05-07 20:23 | 56.40891 | 12.24097 | 26824 ft | 417 kts | 332° |
| 2026-05-07 20:23 | 56.43462 | 12.21650 | 27277 ft | 419 kts | 332° |
| 2026-05-07 20:23 | 56.46049 | 12.19183 | 27670 ft | 422 kts | 332° |
| 2026-05-07 20:23 | 56.48659 | 12.16691 | 28007 ft | 426 kts | 332° |
| 2026-05-07 20:24 | 56.51312 | 12.14248 | 28405 ft | 429 kts | 336° |
| 2026-05-07 20:24 | 56.54117 | 12.12393 | 28855 ft | 430 kts | 345° |
| 2026-05-07 20:24 | 56.57046 | 12.11215 | 29270 ft | 432 kts | 348° |
| 2026-05-07 20:24 | 56.60016 | 12.10261 | 29629 ft | 435 kts | 350° |
| 2026-05-07 20:25 | 56.63012 | 12.09420 | 29995 ft | 438 kts | 351° |
| 2026-05-07 20:25 | 56.66039 | 12.08619 | 30327 ft | 440 kts | 351° |
| 2026-05-07 20:25 | 56.69076 | 12.07820 | 30655 ft | 441 kts | 351° |
| 2026-05-07 20:25 | 56.72117 | 12.07006 | 31088 ft | 440 kts | 351° |
| 2026-05-07 20:26 | 56.75145 | 12.06179 | 31531 ft | 438 kts | 351° |
| 2026-05-07 20:26 | 56.78114 | 12.05353 | 31949 ft | 437 kts | 351° |
| 2026-05-07 20:26 | 56.81114 | 12.04509 | 32358 ft | 435 kts | 351° |
| 2026-05-07 20:26 | 56.84102 | 12.03661 | 32767 ft | 434 kts | 351° |
| 2026-05-07 20:27 | 56.87088 | 12.02811 | 33161 ft | 433 kts | 351° |
| 2026-05-07 20:27 | 56.90068 | 12.01960 | 33539 ft | 432 kts | 351° |
| 2026-05-07 20:27 | 56.93040 | 12.01110 | 33889 ft | 431 kts | 351° |
| 2026-05-07 20:27 | 56.96001 | 12.00263 | 34231 ft | 431 kts | 351° |
| 2026-05-07 20:28 | 56.98965 | 11.99414 | 34497 ft | 430 kts | 351° |
| 2026-05-07 20:28 | 57.01931 | 11.98564 | 34742 ft | 431 kts | 351° |
| 2026-05-07 20:28 | 57.04893 | 11.97713 | 34964 ft | 432 kts | 351° |
| 2026-05-07 20:28 | 57.07867 | 11.96858 | 35198 ft | 432 kts | 350° |
| 2026-05-07 20:29 | 57.10836 | 11.96003 | 35464 ft | 432 kts | 350° |
| 2026-05-07 20:29 | 57.13766 | 11.95158 | 35705 ft | 432 kts | 350° |
| 2026-05-07 20:29 | 57.16734 | 11.94301 | 35910 ft | 432 kts | 350° |
| 2026-05-07 20:29 | 57.19710 | 11.93439 | 36125 ft | 433 kts | 349° |
| 2026-05-07 20:30 | 57.22688 | 11.92576 | 36302 ft | 434 kts | 349° |
| 2026-05-07 20:30 | 57.25681 | 11.91707 | 36490 ft | 435 kts | 349° |
| 2026-05-07 20:30 | 57.28677 | 11.90835 | 36691 ft | 435 kts | 349° |
| 2026-05-07 20:30 | 57.31668 | 11.89964 | 36891 ft | 436 kts | 349° |
| 2026-05-07 20:31 | 57.34669 | 11.89089 | 37093 ft | 436 kts | 349° |
| 2026-05-07 20:31 | 57.37669 | 11.88212 | 37294 ft | 436 kts | 349° |
| 2026-05-07 20:31 | 57.40667 | 11.87335 | 37520 ft | 436 kts | 349° |
| 2026-05-07 20:31 | 57.43665 | 11.86456 | 37699 ft | 436 kts | 349° |
| 2026-05-07 20:32 | 57.46667 | 11.85575 | 37872 ft | 437 kts | 349° |
| 2026-05-07 20:32 | 57.49680 | 11.84688 | 38042 ft | 437 kts | 348° |
| 2026-05-07 20:32 | 57.52694 | 11.83799 | 38147 ft | 439 kts | 348° |
| 2026-05-07 20:33 | 57.58687 | 11.82028 | 38156 ft | 438 kts | 348° |
| 2026-05-07 20:33 | 57.64716 | 11.80242 | 38152 ft | 438 kts | 348° |
| 2026-05-07 20:34 | 57.70736 | 11.78453 | 38157 ft | 437 kts | 348° |
| 2026-05-07 20:34 | 57.76721 | 11.76666 | 38153 ft | 437 kts | 348° |
| 2026-05-07 20:35 | 57.82731 | 11.74866 | 38159 ft | 437 kts | 348° |
| 2026-05-07 20:35 | 57.88741 | 11.73060 | 38152 ft | 437 kts | 348° |
| 2026-05-07 20:36 | 57.94761 | 11.71246 | 38174 ft | 437 kts | 348° |
| 2026-05-07 20:36 | 58.00772 | 11.69428 | 38157 ft | 437 kts | 348° |
| 2026-05-07 20:37 | 58.06775 | 11.67606 | 38156 ft | 437 kts | 348° |
| 2026-05-07 20:37 | 58.12747 | 11.65787 | 38157 ft | 437 kts | 348° |
| 2026-05-07 20:38 | 58.18756 | 11.63941 | 38154 ft | 437 kts | 347° |
| 2026-05-07 20:38 | 58.24794 | 11.62030 | 38163 ft | 437 kts | 347° |
| 2026-05-07 20:39 | 58.30753 | 11.60134 | 38168 ft | 437 kts | 347° |
| 2026-05-07 20:39 | 58.36757 | 11.58219 | 38164 ft | 437 kts | 347° |
| 2026-05-07 20:40 | 58.42762 | 11.56297 | 38164 ft | 437 kts | 347° |
| 2026-05-07 20:40 | 58.48759 | 11.54372 | 38164 ft | 437 kts | 347° |
| 2026-05-07 20:41 | 58.54763 | 11.52438 | 38167 ft | 437 kts | 347° |
| 2026-05-07 20:41 | 58.60761 | 11.50498 | 38166 ft | 437 kts | 347° |
| 2026-05-07 20:41 | 58.63757 | 11.49526 | 37672 ft | 438 kts | 347° |
| 2026-05-07 20:42 | 58.66779 | 11.48544 | 36827 ft | 443 kts | 347° |
| 2026-05-07 20:42 | 58.69835 | 11.47548 | 36018 ft | 445 kts | 347° |
| 2026-05-07 20:42 | 58.72869 | 11.46562 | 35312 ft | 440 kts | 347° |
| 2026-05-07 20:42 | 58.75874 | 11.45584 | 34644 ft | 435 kts | 347° |
| 2026-05-07 20:43 | 58.78804 | 11.44627 | 33924 ft | 430 kts | 347° |
| 2026-05-07 20:43 | 58.81735 | 11.43668 | 33182 ft | 425 kts | 346° |
| 2026-05-07 20:43 | 58.84639 | 11.42717 | 32462 ft | 421 kts | 346° |
| 2026-05-07 20:43 | 58.87506 | 11.41776 | 31940 ft | 413 kts | 346° |
| 2026-05-07 20:44 | 58.90326 | 11.40848 | 31474 ft | 410 kts | 346° |
| 2026-05-07 20:44 | 58.93140 | 11.39917 | 30951 ft | 410 kts | 345° |
| 2026-05-07 20:44 | 58.95945 | 11.38988 | 30433 ft | 409 kts | 345° |
| 2026-05-07 20:44 | 58.98753 | 11.38058 | 29856 ft | 408 kts | 345° |
| 2026-05-07 20:45 | 59.01544 | 11.37134 | 29319 ft | 405 kts | 346° |
| 2026-05-07 20:45 | 59.04308 | 11.36217 | 28811 ft | 401 kts | 346° |
| 2026-05-07 20:45 | 59.07046 | 11.35307 | 28366 ft | 396 kts | 346° |
| 2026-05-07 20:45 | 59.09720 | 11.34421 | 28242 ft | 384 kts | 346° |
| 2026-05-07 20:46 | 59.12314 | 11.33562 | 28162 ft | 371 kts | 345° |
| 2026-05-07 20:46 | 59.14835 | 11.32722 | 27852 ft | 365 kts | 345° |
| 2026-05-07 20:46 | 59.17359 | 11.32130 | 27316 ft | 367 kts | 353° |
| 2026-05-07 20:46 | 59.19905 | 11.32642 | 26786 ft | 370 kts | 7° |
| 2026-05-07 20:47 | 59.22335 | 11.33973 | 26343 ft | 364 kts | 12° |
| 2026-05-07 20:47 | 59.24730 | 11.35475 | 25907 ft | 358 kts | 12° |
| 2026-05-07 20:47 | 59.27084 | 11.36979 | 25462 ft | 353 kts | 12° |
| 2026-05-07 20:47 | 59.29405 | 11.38460 | 25026 ft | 348 kts | 12° |
| 2026-05-07 20:48 | 59.31693 | 11.39913 | 24603 ft | 343 kts | 12° |
| 2026-05-07 20:48 | 59.33950 | 11.41343 | 24171 ft | 338 kts | 12° |
| 2026-05-07 20:48 | 59.36176 | 11.42754 | 23750 ft | 334 kts | 12° |
| 2026-05-07 20:48 | 59.38381 | 11.44151 | 23277 ft | 330 kts | 12° |
| 2026-05-07 20:49 | 59.40547 | 11.45526 | 22863 ft | 325 kts | 12° |
| 2026-05-07 20:49 | 59.42695 | 11.46884 | 22440 ft | 324 kts | 12° |
| 2026-05-07 20:49 | 59.44841 | 11.48234 | 22008 ft | 324 kts | 12° |
| 2026-05-07 20:49 | 59.46982 | 11.49583 | 21593 ft | 323 kts | 12° |
| 2026-05-07 20:50 | 59.49129 | 11.50937 | 21174 ft | 323 kts | 12° |
| 2026-05-07 20:50 | 59.51275 | 11.52291 | 20748 ft | 325 kts | 12° |
| 2026-05-07 20:50 | 59.53406 | 11.53639 | 20323 ft | 327 kts | 13° |
| 2026-05-07 20:50 | 59.55578 | 11.55015 | 19885 ft | 328 kts | 13° |
| 2026-05-07 20:51 | 59.57758 | 11.56398 | 19456 ft | 330 kts | 13° |
| 2026-05-07 20:51 | 59.59947 | 11.57790 | 19005 ft | 332 kts | 13° |
| 2026-05-07 20:51 | 59.62151 | 11.59193 | 18557 ft | 332 kts | 13° |
| 2026-05-07 20:51 | 59.64349 | 11.60595 | 18076 ft | 332 kts | 13° |
| 2026-05-07 20:52 | 59.66548 | 11.62001 | 17625 ft | 331 kts | 13° |
| 2026-05-07 20:52 | 59.68737 | 11.63400 | 17168 ft | 329 kts | 13° |
| 2026-05-07 20:52 | 59.70912 | 11.64794 | 16745 ft | 328 kts | 13° |
| 2026-05-07 20:52 | 59.73079 | 11.66183 | 16334 ft | 325 kts | 14° |
| 2026-05-07 20:53 | 59.75226 | 11.67562 | 15930 ft | 323 kts | 14° |
| 2026-05-07 20:53 | 59.77361 | 11.68934 | 15531 ft | 321 kts | 14° |
| 2026-05-07 20:53 | 59.79484 | 11.70301 | 15128 ft | 319 kts | 14° |
| 2026-05-07 20:53 | 59.81565 | 11.71642 | 14742 ft | 317 kts | 14° |
| 2026-05-07 20:54 | 59.83664 | 11.72996 | 14328 ft | 315 kts | 14° |
| 2026-05-07 20:54 | 59.85742 | 11.74339 | 13973 ft | 313 kts | 14° |
| 2026-05-07 20:54 | 59.87808 | 11.75676 | 13537 ft | 311 kts | 14° |
| 2026-05-07 20:54 | 59.89858 | 11.77004 | 13100 ft | 309 kts | 15° |
| 2026-05-07 20:55 | 59.91900 | 11.78328 | 12680 ft | 307 kts | 15° |
| 2026-05-07 20:55 | 59.93925 | 11.79646 | 12286 ft | 305 kts | 15° |
| 2026-05-07 20:55 | 59.95936 | 11.80957 | 11854 ft | 304 kts | 15° |
| 2026-05-07 20:55 | 59.97943 | 11.82267 | 11489 ft | 301 kts | 15° |
| 2026-05-07 20:56 | 59.99933 | 11.83568 | 11088 ft | 300 kts | 16° |
| 2026-05-07 20:56 | 60.01915 | 11.84865 | 10686 ft | 299 kts | 16° |
| 2026-05-07 20:56 | 60.03882 | 11.86154 | 10306 ft | 297 kts | 16° |
| 2026-05-07 20:56 | 60.05835 | 11.87436 | 9955 ft | 294 kts | 17° |
| 2026-05-07 20:57 | 60.07767 | 11.88705 | 9602 ft | 290 kts | 17° |
| 2026-05-07 20:57 | 60.09675 | 11.89961 | 9280 ft | 288 kts | 17° |
| 2026-05-07 20:57 | 60.11575 | 11.90984 | 9135 ft | 285 kts | 9° |
| 2026-05-07 20:57 | 60.13534 | 11.91658 | 9145 ft | 286 kts | 7° |
| 2026-05-07 20:58 | 60.15503 | 11.92254 | 9147 ft | 286 kts | 7° |
| 2026-05-07 20:58 | 60.17474 | 11.92841 | 9137 ft | 286 kts | 7° |
| 2026-05-07 20:58 | 60.19440 | 11.93427 | 9142 ft | 286 kts | 7° |
| 2026-05-07 20:58 | 60.21407 | 11.94016 | 9154 ft | 286 kts | 7° |
| 2026-05-07 20:59 | 60.23363 | 11.94440 | 9105 ft | 276 kts | 358° |
| 2026-05-07 20:59 | 60.25197 | 11.93950 | 9074 ft | 258 kts | 341° |
| 2026-05-07 20:59 | 60.26745 | 11.92395 | 9040 ft | 244 kts | 320° |
| 2026-05-07 20:59 | 60.27893 | 11.89921 | 8816 ft | 242 kts | 303° |
| 2026-05-07 21:00 | 60.28800 | 11.87065 | 8551 ft | 242 kts | 299° |
| 2026-05-07 21:00 | 60.29651 | 11.84135 | 8278 ft | 242 kts | 298° |
| 2026-05-07 21:00 | 60.30491 | 11.81200 | 8012 ft | 241 kts | 298° |
| 2026-05-07 21:00 | 60.31329 | 11.78269 | 7752 ft | 241 kts | 298° |
| 2026-05-07 21:01 | 60.32166 | 11.75342 | 7504 ft | 241 kts | 298° |
| 2026-05-07 21:01 | 60.33001 | 11.72419 | 7245 ft | 240 kts | 298° |
| 2026-05-07 21:01 | 60.33835 | 11.69501 | 6990 ft | 240 kts | 298° |
| 2026-05-07 21:01 | 60.34670 | 11.66579 | 6741 ft | 240 kts | 298° |
| 2026-05-07 21:02 | 60.35490 | 11.63699 | 6490 ft | 239 kts | 298° |
| 2026-05-07 21:02 | 60.36319 | 11.60788 | 6223 ft | 239 kts | 298° |
| 2026-05-07 21:02 | 60.37146 | 11.57882 | 5958 ft | 238 kts | 298° |
| 2026-05-07 21:02 | 60.37971 | 11.54978 | 5695 ft | 238 kts | 298° |
| 2026-05-07 21:03 | 60.38794 | 11.52082 | 5509 ft | 237 kts | 298° |
| 2026-05-07 21:03 | 60.39613 | 11.49196 | 5377 ft | 237 kts | 298° |
| 2026-05-07 21:03 | 60.40432 | 11.46307 | 5251 ft | 237 kts | 298° |
| 2026-05-07 21:03 | 60.41239 | 11.43451 | 5096 ft | 231 kts | 297° |
| 2026-05-07 21:04 | 60.41815 | 11.40479 | 4996 ft | 225 kts | 277° |
| 2026-05-07 21:04 | 60.41845 | 11.38399 | 4957 ft | 223 kts | 262° |
| 2026-05-07 21:04 | 60.41562 | 11.35298 | 4744 ft | 224 kts | 255° |
| 2026-05-07 21:04 | 60.41180 | 11.32242 | 4456 ft | 223 kts | 253° |
| 2026-05-07 21:05 | 60.40792 | 11.29231 | 4287 ft | 215 kts | 254° |
| 2026-05-07 21:05 | 60.40206 | 11.25600 | 4008 ft | 199 kts | 239° |
| 2026-05-07 21:05 | 60.39632 | 11.24132 | 3765 ft | 194 kts | 218° |
| 2026-05-07 21:05 | 60.38486 | 11.22895 | 3568 ft | 181 kts | 198° |
| 2026-05-07 21:06 | 60.37344 | 11.22193 | 3479 ft | 164 kts | 194° |
| 2026-05-07 21:06 | 60.36307 | 11.21607 | 3471 ft | 149 kts | 194° |
| 2026-05-07 21:06 | 60.35311 | 11.21037 | 3488 ft | 149 kts | 194° |
| 2026-05-07 21:06 | 60.34316 | 11.20466 | 3507 ft | 148 kts | 194° |
| 2026-05-07 21:07 | 60.33324 | 11.19891 | 3459 ft | 148 kts | 194° |
| 2026-05-07 21:07 | 60.32330 | 11.19310 | 3265 ft | 148 kts | 194° |
| 2026-05-07 21:07 | 60.31340 | 11.18734 | 3048 ft | 148 kts | 194° |
| 2026-05-07 21:07 | 60.30349 | 11.18159 | 2839 ft | 148 kts | 194° |
| 2026-05-07 21:08 | 60.29358 | 11.17585 | 2633 ft | 148 kts | 194° |
| 2026-05-07 21:08 | 60.28369 | 11.17011 | 2427 ft | 148 kts | 194° |
| 2026-05-07 21:08 | 60.27378 | 11.16438 | 2222 ft | 148 kts | 195° |
| 2026-05-07 21:08 | 60.26406 | 11.15875 | 2021 ft | 147 kts | 195° |
| 2026-05-07 21:09 | 60.25425 | 11.15307 | 1822 ft | 146 kts | 195° |
| 2026-05-07 21:09 | 60.24466 | 11.14752 | 1632 ft | 139 kts | 195° |
| 2026-05-07 21:09 | 60.23550 | 11.14223 | 1426 ft | 136 kts | 195° |
| 2026-05-07 21:09 | 60.22639 | 11.13697 | 1246 ft | 136 kts | 195° |
| 2026-05-07 21:10 | 60.21728 | 11.13171 | 1056 ft | 136 kts | 195° |
| 2026-05-07 21:10 | 60.20820 | 11.12647 | 876 ft | 136 kts | 196° |
| 2026-05-07 21:10 | 60.19911 | 11.12123 | 697 ft | 135 kts | 196° |
| 2026-05-07 21:10 | 60.19088 | 11.11646 | 683 ft | 103 kts | 196° |
| 2026-05-07 21:11 | 60.18611 | 11.11369 | 677 ft | 42 kts | 198° |
| 2026-05-07 21:11 | 60.18440 | 11.11083 | 679 ft | 12 kts | 267° |
| 2026-05-07 21:11 | 60.18440 | 11.11074 | 679 ft | 0 kts | 269° |
| 2026-05-07 21:12 | 60.18440 | 11.11069 | 679 ft | 2 kts | 269° |
| 2026-05-07 21:12 | 60.18443 | 11.11005 | 676 ft | 7 kts | 279° |
| 2026-05-07 21:12 | 60.18475 | 11.10918 | 679 ft | 11 kts | 352° |
| 2026-05-07 21:13 | 60.18588 | 11.10963 | 680 ft | 23 kts | 17° |
| 2026-05-07 21:13 | 60.18768 | 11.11062 | 680 ft | 31 kts | 15° |
| 2026-05-07 21:13 | 60.18993 | 11.11194 | 681 ft | 37 kts | 16° |
| 2026-05-07 21:13 | 60.19138 | 11.11157 | 679 ft | 20 kts | 293° |
| 2026-05-07 21:14 | 60.19171 | 11.10926 | 682 ft | 20 kts | 288° |
| 2026-05-07 21:14 | 60.19213 | 11.10654 | 682 ft | 10 kts | 286° |
| 2026-05-07 21:14 | 60.19247 | 11.10533 | 680 ft | 5 kts | 1° |
| 2026-05-07 21:14 | 60.19291 | 11.10561 | 682 ft | 4 kts | 18° |
| 2026-05-07 21:15 | 60.19295 | 11.10563 | 682 ft | 0 kts | 18° |